createdAt,value
2019-02-19T00:01:02.184Z,126.30
2019-02-19T00:03:38.017Z,128.57
2019-02-19T00:06:14.496Z,117.57
2019-02-19T00:08:49.626Z,106.47
2019-02-19T00:11:24.745Z,117.72
2019-02-19T00:13:59.114Z,103.05
2019-02-19T00:16:37.229Z,100.30
2019-02-19T00:19:14.203Z,99.65
2019-02-19T00:21:49.000Z,100.62
2019-02-19T00:24:24.869Z,91.87
2019-02-19T00:27:01.641Z,93.10
2019-02-19T00:29:36.691Z,93.55
2019-02-19T00:32:11.763Z,89.87
2019-02-19T00:34:47.137Z,85.32
2019-02-19T00:37:22.967Z,86.60
2019-02-19T00:39:59.506Z,88.97
2019-02-19T00:42:35.041Z,80.05
2019-02-19T00:45:16.686Z,79.65
2019-02-19T00:47:48.032Z,77.35
2019-02-19T00:50:22.989Z,76.10
2019-02-19T00:52:58.740Z,75.97
2019-02-19T00:55:34.490Z,80.45
2019-02-19T00:58:10.167Z,75.22
2019-02-19T01:00:45.279Z,74.12
2019-02-19T01:03:20.318Z,74.00
2019-02-19T01:05:55.482Z,83.22
2019-02-19T01:08:31.314Z,72.60
2019-02-19T01:11:05.712Z,71.45
2019-02-19T01:13:41.888Z,76.42
2019-02-19T01:16:16.828Z,81.85
2019-02-19T01:18:53.402Z,97.17
2019-02-19T01:21:28.327Z,128.25
2019-02-19T01:24:02.805Z,164.30
2019-02-19T01:26:38.155Z,281.55
2019-02-19T01:29:13.820Z,162.92
2019-02-19T01:31:49.859Z,151.47
2019-02-19T01:34:24.843Z,180.32
2019-02-19T01:37:00.589Z,202.80
2019-02-19T01:39:36.857Z,193.15
2019-02-19T01:42:11.990Z,220.17
2019-02-19T01:44:48.026Z,148.10
2019-02-19T01:47:24.982Z,113.88
2019-02-19T01:50:02.559Z,94.85
2019-02-19T01:52:37.683Z,80.57
2019-02-19T01:55:13.612Z,80.80
2019-02-19T01:57:49.473Z,81.32
2019-02-19T02:00:25.651Z,81.45
2019-02-19T02:03:00.714Z,73.75
2019-02-19T02:05:36.322Z,76.12
2019-02-19T02:08:13.775Z,73.17
2019-02-19T02:10:48.750Z,68.22
2019-02-19T02:13:23.882Z,70.97
2019-02-19T02:15:59.866Z,67.08
2019-02-19T02:18:34.895Z,74.55
2019-02-19T02:21:10.745Z,61.28
2019-02-19T02:23:49.062Z,62.95
2019-02-19T02:26:22.040Z,62.38
2019-02-19T02:28:58.664Z,64.30
2019-02-19T02:31:32.810Z,57.20
2019-02-19T02:34:05.840Z,66.53
2019-02-19T02:36:39.341Z,60.52
2019-02-19T02:39:12.657Z,53.63
2019-02-19T02:41:46.445Z,68.83
2019-02-19T02:44:20.304Z,64.15
2019-02-19T02:46:54.138Z,51.98
2019-02-19T02:49:28.441Z,62.88
2019-02-19T02:52:05.214Z,57.05
2019-02-19T02:54:40.779Z,65.50
2019-02-19T02:57:17.315Z,62.35
2019-02-19T02:59:53.224Z,56.60
2019-02-19T03:02:28.925Z,62.93
2019-02-19T03:05:03.247Z,65.12
2019-02-19T03:07:42.372Z,74.45
2019-02-19T03:10:19.319Z,74.50
2019-02-19T03:12:56.183Z,62.75
2019-02-19T03:15:32.376Z,66.47
2019-02-19T03:18:09.168Z,56.40
2019-02-19T03:20:47.002Z,50.48
2019-02-19T03:23:22.990Z,55.25
2019-02-19T03:25:59.170Z,57.38
2019-02-19T03:28:34.378Z,54.13
2019-02-19T03:31:09.384Z,62.75
2019-02-19T03:33:46.050Z,55.08
2019-02-19T03:36:21.213Z,55.85
2019-02-19T03:38:58.620Z,59.88
2019-02-19T03:41:33.638Z,59.98
2019-02-19T03:44:09.179Z,54.65
2019-02-19T03:46:45.530Z,52.85
2019-02-19T03:49:21.489Z,55.83
2019-02-19T03:51:58.755Z,61.02
2019-02-19T03:54:33.750Z,85.87
2019-02-19T03:57:09.270Z,87.10
2019-02-19T03:59:44.784Z,75.72
2019-02-19T04:02:19.232Z,70.92
2019-02-19T04:04:54.988Z,63.17
2019-02-19T04:07:30.697Z,59.38
2019-02-19T04:10:07.401Z,58.15
2019-02-19T04:12:44.610Z,56.15
2019-02-19T04:15:19.357Z,55.17
2019-02-19T04:17:54.238Z,53.35
2019-02-19T04:20:28.758Z,57.03
2019-02-19T04:23:03.804Z,66.80
2019-02-19T04:25:38.088Z,83.17
2019-02-19T04:28:12.483Z,89.92
2019-02-19T04:30:48.348Z,86.30
2019-02-19T04:33:23.752Z,90.40
2019-02-19T04:35:58.199Z,77.17
2019-02-19T04:38:36.070Z,75.15
2019-02-19T04:41:12.846Z,75.17
2019-02-19T04:43:49.654Z,75.47
2019-02-19T04:46:31.491Z,107.10
2019-02-19T04:49:00.855Z,111.60
2019-02-19T04:51:35.838Z,114.60
2019-02-19T04:54:12.520Z,103.97
2019-02-19T04:56:47.267Z,93.27
2019-02-19T04:59:23.940Z,80.03
2019-02-19T05:02:00.115Z,70.00
2019-02-19T05:04:36.636Z,64.35
2019-02-19T05:07:12.724Z,59.70
2019-02-19T05:09:49.506Z,56.68
2019-02-19T05:12:24.736Z,56.37
2019-02-19T05:15:01.828Z,52.58
2019-02-19T05:17:38.783Z,49.95
2019-02-19T05:20:15.626Z,54.80
2019-02-19T05:22:50.811Z,51.73
2019-02-19T05:25:27.762Z,52.78
2019-02-19T05:28:05.104Z,63.60
2019-02-19T05:30:43.041Z,72.22
2019-02-19T05:33:19.697Z,92.30
2019-02-19T05:35:56.805Z,90.55
2019-02-19T05:38:32.395Z,101.12
2019-02-19T05:41:07.516Z,96.72
2019-02-19T05:43:42.488Z,98.78
2019-02-19T05:46:18.939Z,102.82
2019-02-19T05:48:54.607Z,93.90
2019-02-19T05:51:29.705Z,88.27
2019-02-19T05:54:05.718Z,85.80
2019-02-19T05:56:41.731Z,94.42
2019-02-19T05:59:23.340Z,118.82
2019-02-19T06:02:09.125Z,127.32
2019-02-19T06:04:56.897Z,130.75
2019-02-19T06:07:40.579Z,135.48
2019-02-19T06:10:20.739Z,130.27
2019-02-19T06:13:09.256Z,109.85
2019-02-19T06:15:41.789Z,93.95
2019-02-19T06:18:15.944Z,87.27
2019-02-19T06:20:48.943Z,65.17
2019-02-19T06:23:24.270Z,71.67
2019-02-19T06:25:59.691Z,54.95
2019-02-19T06:28:34.036Z,53.68
2019-02-19T06:31:10.119Z,60.23
2019-02-19T06:33:45.072Z,55.58
2019-02-19T06:36:21.983Z,60.85
2019-02-19T06:38:58.336Z,53.50
2019-02-19T06:41:34.277Z,55.88
2019-02-19T06:44:09.301Z,61.42
2019-02-19T06:46:47.533Z,60.38
2019-02-19T06:49:23.130Z,57.75
2019-02-19T06:51:59.326Z,61.92
2019-02-19T06:54:33.858Z,60.35
2019-02-19T06:57:08.396Z,65.52
2019-02-19T06:59:43.335Z,65.08
2019-02-19T07:02:30.937Z,64.97
2019-02-19T07:05:08.727Z,62.78
2019-02-19T07:07:46.016Z,66.97
2019-02-19T07:10:19.399Z,66.28
2019-02-19T07:12:53.759Z,69.90
2019-02-19T07:15:27.503Z,66.00
2019-02-19T07:18:02.799Z,64.87
2019-02-19T07:20:37.148Z,70.97
2019-02-19T07:23:11.667Z,61.28
2019-02-19T07:25:46.935Z,58.87
2019-02-19T07:28:22.315Z,67.15
2019-02-19T07:30:57.343Z,72.50
2019-02-19T07:33:31.683Z,92.70
2019-02-19T07:36:06.689Z,109.95
2019-02-19T07:38:40.890Z,119.75
2019-02-19T07:41:15.637Z,95.15
2019-02-19T07:43:49.812Z,82.35
2019-02-19T07:46:25.467Z,74.60
2019-02-19T07:48:58.704Z,66.05
2019-02-19T07:51:33.355Z,62.67
2019-02-19T07:54:08.271Z,73.20
2019-02-19T07:56:43.559Z,72.20
2019-02-19T07:59:16.373Z,64.05
2019-02-19T08:01:50.209Z,58.55
2019-02-19T08:04:25.063Z,63.17
2019-02-19T08:06:59.410Z,57.98
2019-02-19T08:09:34.056Z,58.20
2019-02-19T08:12:08.361Z,56.88
2019-02-19T08:14:41.261Z,51.40
2019-02-19T08:17:14.503Z,59.15
2019-02-19T08:19:48.829Z,55.58
2019-02-19T08:22:23.609Z,50.17
2019-02-19T08:24:58.259Z,53.25
2019-02-19T08:27:31.139Z,53.63
2019-02-19T08:30:05.649Z,54.55
2019-02-19T08:32:40.060Z,54.42
2019-02-19T08:35:13.483Z,51.73
2019-02-19T08:37:46.827Z,50.83
2019-02-19T08:40:21.981Z,48.33
2019-02-19T08:42:55.766Z,50.43
2019-02-19T08:45:28.564Z,51.48
2019-02-19T08:48:02.463Z,48.33
2019-02-19T08:50:36.706Z,57.48
2019-02-19T08:53:10.345Z,51.18
2019-02-19T08:55:46.396Z,49.77
2019-02-19T08:58:19.352Z,48.13
2019-02-19T09:00:52.275Z,47.27
2019-02-19T09:03:26.895Z,51.20
2019-02-19T09:05:59.255Z,53.28
2019-02-19T09:08:32.163Z,55.35
2019-02-19T09:11:05.148Z,50.12
2019-02-19T09:13:38.401Z,56.18
2019-02-19T09:16:11.518Z,57.13
2019-02-19T09:18:44.758Z,52.35
2019-02-19T09:21:16.797Z,51.75
2019-02-19T09:23:49.214Z,49.30
2019-02-19T09:26:23.371Z,56.30
2019-02-19T09:28:56.646Z,44.18
2019-02-19T09:31:29.159Z,44.88
2019-02-19T09:34:02.888Z,41.75
2019-02-19T09:36:36.360Z,44.10
2019-02-19T09:39:10.385Z,45.05
2019-02-19T09:41:44.232Z,43.30
2019-02-19T09:44:18.412Z,41.05
2019-02-19T09:46:52.659Z,45.85
2019-02-19T09:49:26.878Z,42.88
2019-02-19T09:51:58.850Z,41.63
2019-02-19T09:54:31.400Z,49.35
2019-02-19T09:57:04.712Z,43.20
2019-02-19T09:59:39.126Z,42.55
2019-02-19T10:02:12.630Z,46.63
2019-02-19T10:04:45.109Z,42.62
2019-02-19T10:07:19.393Z,46.95
2019-02-19T10:09:53.261Z,40.78
2019-02-19T10:12:27.926Z,44.42
2019-02-19T10:15:00.847Z,49.55
2019-02-19T10:17:34.147Z,43.95
2019-02-19T10:20:07.704Z,45.52
2019-02-19T10:22:41.258Z,49.20
2019-02-19T10:25:14.202Z,44.98
2019-02-19T10:27:47.068Z,51.92
2019-02-19T10:30:19.563Z,45.92
2019-02-19T10:32:52.535Z,48.02
2019-02-19T10:35:24.688Z,50.75
2019-02-19T10:37:58.149Z,46.37
2019-02-19T10:40:30.619Z,43.95
2019-02-19T10:43:02.633Z,42.03
2019-02-19T10:45:36.204Z,40.48
2019-02-19T10:48:09.595Z,49.25
2019-02-19T10:50:43.016Z,48.85
2019-02-19T10:53:15.898Z,45.50
2019-02-19T10:55:48.953Z,41.48
2019-02-19T10:58:23.290Z,46.65
2019-02-19T11:00:57.424Z,41.63
2019-02-19T11:03:30.404Z,38.90
2019-02-19T11:06:03.289Z,46.37
2019-02-19T11:08:36.099Z,42.15
2019-02-19T11:11:09.352Z,44.85
2019-02-19T11:13:43.318Z,43.90
2019-02-19T11:16:16.261Z,42.25
2019-02-19T11:18:49.224Z,45.03
2019-02-19T11:21:22.714Z,40.40
2019-02-19T11:23:55.117Z,46.55
2019-02-19T11:26:28.077Z,38.25
2019-02-19T11:29:02.549Z,46.58
2019-02-19T11:31:36.259Z,44.70
2019-02-19T11:34:09.138Z,42.83
2019-02-19T11:36:42.441Z,40.52
2019-02-19T11:39:16.480Z,45.35
2019-02-19T11:41:49.861Z,43.25
2019-02-19T11:44:22.918Z,45.63
2019-02-19T11:46:56.933Z,43.75
2019-02-19T11:49:30.354Z,39.20
2019-02-19T11:52:03.306Z,36.40
2019-02-19T11:54:37.078Z,40.78
2019-02-19T11:57:10.444Z,37.38
2019-02-19T11:59:44.152Z,34.50
2019-02-19T12:02:18.452Z,40.30
2019-02-19T12:04:52.699Z,30.40
2019-02-19T12:07:26.985Z,32.63
2019-02-19T12:10:01.890Z,31.12
2019-02-19T12:12:35.640Z,28.95
2019-02-19T12:15:08.634Z,33.23
2019-02-19T12:17:42.054Z,31.65
2019-02-19T12:20:14.562Z,32.58
2019-02-19T12:22:48.011Z,33.65
2019-02-19T12:25:21.196Z,34.30
2019-02-19T12:27:57.434Z,28.87
2019-02-19T12:30:33.174Z,38.23
2019-02-19T12:33:10.465Z,32.40
2019-02-19T12:35:45.043Z,31.73
2019-02-19T12:38:20.665Z,36.68
2019-02-19T12:40:57.092Z,29.65
2019-02-19T12:43:33.989Z,30.37
2019-02-19T12:46:09.159Z,32.53
2019-02-19T12:48:44.992Z,32.73
2019-02-19T12:51:26.462Z,26.62
2019-02-19T12:53:59.770Z,31.25
2019-02-19T12:56:36.520Z,31.93
2019-02-19T12:59:14.041Z,26.00
2019-02-19T13:01:50.251Z,29.25
2019-02-19T13:04:25.206Z,26.15
2019-02-19T13:07:01.513Z,30.32
2019-02-19T13:09:39.470Z,30.27
2019-02-19T13:12:26.046Z,29.87
2019-02-19T13:15:00.414Z,31.73
2019-02-19T13:17:36.537Z,29.18
2019-02-19T13:20:14.077Z,30.27
2019-02-19T13:22:49.934Z,34.88
2019-02-19T13:25:25.438Z,28.25
2019-02-19T13:28:00.568Z,30.35
2019-02-19T13:30:35.469Z,31.50
2019-02-19T13:33:10.540Z,31.65
2019-02-19T13:35:46.745Z,33.63
2019-02-19T13:38:21.331Z,33.83
2019-02-19T13:40:56.434Z,31.50
2019-02-19T13:43:30.024Z,34.03
2019-02-19T13:46:03.349Z,41.48
2019-02-19T13:48:37.427Z,33.28
2019-02-19T13:51:10.815Z,30.02
2019-02-19T13:53:47.856Z,29.67
2019-02-19T13:56:21.184Z,27.87
2019-02-19T13:58:54.290Z,29.82
2019-02-19T14:02:11.080Z,35.65
2019-02-19T14:05:05.843Z,31.57
2019-02-19T14:12:11.846Z,30.52
2019-02-19T14:15:32.484Z,35.98
2019-02-19T14:18:22.637Z,35.73
2019-02-19T14:21:42.563Z,34.70
2019-02-19T14:25:08.154Z,37.85
2019-02-19T14:28:44.579Z,31.95
2019-02-19T14:31:46.833Z,30.52
2019-02-19T14:35:11.072Z,27.17
2019-02-19T14:42:55.450Z,31.00
2019-02-19T14:50:57.243Z,30.55
2019-02-19T14:59:00.985Z,32.95
2019-02-19T15:10:58.065Z,35.45
2019-02-19T15:14:49.382Z,41.45
2019-02-19T15:19:00.156Z,38.92
2019-02-19T15:35:55.023Z,40.12
2019-02-19T16:03:24.708Z,59.38
2019-02-19T16:06:52.465Z,62.67
2019-02-19T16:09:44.517Z,62.60
2019-02-19T16:12:39.954Z,65.80
2019-02-19T16:15:47.811Z,73.57
2019-02-19T16:18:43.065Z,84.00
2019-02-19T16:21:30.309Z,83.45
2019-02-19T16:24:32.576Z,74.70
2019-02-19T16:27:32.975Z,91.17
2019-02-19T16:30:37.209Z,99.25
2019-02-19T16:33:33.549Z,95.10
2019-02-19T16:36:15.025Z,88.37
2019-02-19T16:39:08.092Z,85.17
2019-02-19T16:42:00.715Z,84.17
2019-02-19T16:45:01.421Z,77.20
2019-02-19T16:47:43.188Z,73.65
2019-02-19T16:50:54.307Z,80.10
2019-02-19T16:53:46.696Z,74.70
2019-02-19T16:56:41.367Z,73.97
2019-02-19T16:59:33.994Z,64.50
2019-02-19T17:02:16.301Z,61.10
2019-02-19T17:05:15.369Z,59.05
2019-02-19T17:08:05.747Z,53.68
2019-02-19T17:10:59.267Z,68.92
2019-02-19T17:13:58.142Z,78.00
2019-02-19T17:16:53.195Z,66.60
2019-02-19T17:19:48.626Z,62.73
2019-02-19T17:22:41.167Z,67.35
2019-02-19T17:25:32.787Z,68.52
2019-02-19T17:28:18.085Z,67.25
2019-02-19T17:31:23.321Z,60.90
2019-02-19T17:34:17.403Z,63.80
2019-02-19T17:37:22.543Z,69.00
2019-02-19T17:40:25.601Z,63.58
2019-02-19T17:43:16.648Z,62.03
2019-02-19T17:46:12.094Z,59.88
2019-02-19T17:49:07.582Z,57.67
2019-02-19T17:51:54.179Z,60.52
2019-02-19T17:54:41.529Z,69.55
2019-02-19T17:57:55.667Z,56.05
2019-02-19T18:01:08.410Z,54.08
2019-02-19T18:03:59.138Z,54.45
2019-02-19T18:06:55.190Z,48.65
2019-02-19T18:10:01.770Z,50.43
2019-02-19T18:12:56.271Z,57.60
2019-02-19T18:15:57.696Z,49.90
2019-02-19T18:18:51.037Z,53.92
2019-02-19T18:21:25.896Z,58.60
2019-02-19T18:23:59.428Z,53.75
2019-02-19T18:26:32.682Z,55.92
2019-02-19T18:29:06.169Z,50.65
2019-02-19T18:31:39.723Z,55.20
2019-02-19T18:34:13.215Z,63.80
2019-02-19T18:36:46.270Z,48.83
2019-02-19T18:39:19.399Z,46.48
2019-02-19T18:41:57.634Z,40.28
2019-02-19T18:44:30.650Z,34.13
2019-02-19T18:47:12.824Z,37.08
2019-02-19T18:49:48.961Z,35.50
2019-02-19T18:52:24.613Z,35.40
2019-02-19T18:54:59.439Z,33.00
2019-02-19T18:57:32.988Z,34.43
2019-02-19T19:00:12.475Z,28.40
2019-02-19T19:02:48.773Z,31.68
2019-02-19T19:05:25.218Z,28.98
2019-02-19T19:08:00.082Z,31.35
2019-02-19T19:10:35.189Z,32.35
2019-02-19T19:13:10.999Z,32.60
2019-02-19T19:15:45.623Z,35.33
2019-02-19T19:18:24.788Z,35.43
2019-02-19T19:21:11.410Z,41.08
2019-02-19T19:23:47.257Z,40.67
2019-02-19T19:26:23.451Z,34.48
2019-02-19T19:28:59.190Z,41.13
2019-02-19T19:31:45.070Z,39.05
2019-02-19T19:34:19.741Z,36.88
2019-02-19T19:37:00.130Z,35.55
2019-02-19T19:39:37.023Z,31.40
2019-02-19T19:42:11.865Z,33.45
2019-02-19T19:45:01.126Z,34.92
2019-02-19T19:47:40.492Z,32.90
2019-02-19T19:50:24.077Z,32.67
2019-02-19T19:53:03.835Z,25.12
2019-02-19T19:55:37.971Z,27.05
2019-02-19T19:58:13.909Z,27.93
2019-02-19T20:00:48.936Z,26.97
2019-02-19T20:03:22.314Z,29.52
2019-02-19T20:05:57.230Z,36.68
2019-02-19T20:08:31.901Z,38.05
2019-02-19T20:11:10.709Z,30.55
2019-02-19T20:13:47.469Z,31.27
2019-02-19T20:16:22.379Z,24.15
2019-02-19T20:18:56.627Z,20.23
2019-02-19T20:21:32.901Z,21.80
2019-02-19T20:24:07.629Z,14.55
2019-02-19T20:26:42.482Z,13.98
2019-02-19T20:29:18.589Z,14.93
2019-02-19T20:31:54.922Z,18.12
2019-02-19T20:34:32.600Z,16.60
2019-02-19T20:37:07.529Z,15.90
2019-02-19T20:39:56.685Z,18.75
2019-02-19T20:42:30.779Z,15.68
2019-02-19T20:45:05.122Z,13.93
2019-02-19T20:47:39.628Z,15.55
2019-02-19T20:50:16.089Z,17.35
2019-02-19T20:52:50.559Z,20.12
2019-02-19T20:55:24.258Z,19.02
2019-02-19T20:57:59.875Z,19.87
2019-02-19T21:00:33.741Z,21.95
2019-02-19T21:03:10.565Z,20.27
2019-02-19T21:05:50.343Z,20.77
2019-02-19T21:08:24.706Z,18.35
2019-02-19T21:11:06.545Z,19.07
2019-02-19T21:13:40.432Z,19.85
2019-02-19T21:16:14.719Z,18.05
2019-02-19T21:18:48.982Z,19.27
2019-02-19T21:21:24.004Z,21.33
2019-02-19T21:23:58.043Z,19.42
2019-02-19T21:26:32.106Z,22.42
2019-02-19T21:29:07.963Z,24.82
2019-02-19T21:31:42.395Z,26.00
2019-02-19T21:34:16.539Z,31.45
2019-02-19T21:36:50.708Z,25.82
2019-02-19T21:39:25.078Z,21.15
2019-02-19T21:42:00.019Z,22.58
2019-02-19T21:44:33.980Z,20.55
2019-02-19T21:47:08.884Z,27.65
2019-02-19T21:49:46.073Z,24.95
2019-02-19T21:52:20.969Z,31.95
2019-02-19T21:54:56.180Z,24.10
2019-02-19T21:57:31.017Z,27.37
2019-02-19T22:00:06.165Z,26.75
2019-02-19T22:02:39.994Z,26.15
2019-02-19T22:05:14.516Z,26.15
2019-02-19T22:07:48.543Z,23.55
2019-02-19T22:10:23.221Z,24.25
2019-02-19T22:12:56.381Z,27.15
2019-02-19T22:15:33.621Z,28.57
2019-02-19T22:18:09.987Z,27.00
2019-02-19T22:21:01.565Z,25.52
2019-02-19T22:23:35.819Z,31.20
2019-02-19T22:26:10.973Z,30.00
2019-02-19T22:28:44.857Z,29.27
2019-02-19T22:31:19.908Z,32.15
2019-02-19T22:33:56.075Z,33.15
2019-02-19T22:36:31.130Z,40.58
2019-02-19T22:39:07.491Z,36.83
2019-02-19T22:41:42.503Z,36.73
2019-02-19T22:44:17.707Z,34.23
2019-02-19T22:46:52.077Z,32.78
2019-02-19T22:49:27.108Z,42.17
2019-02-19T22:52:00.392Z,40.03
2019-02-19T22:54:39.279Z,38.67
2019-02-19T22:57:13.166Z,41.40
2019-02-19T22:59:48.076Z,46.77
2019-02-19T23:02:24.469Z,36.23
2019-02-19T23:04:58.324Z,36.05
2019-02-19T23:07:33.271Z,35.92
2019-02-19T23:10:08.306Z,37.03
2019-02-19T23:12:43.244Z,39.63
2019-02-19T23:15:17.492Z,36.63
2019-02-19T23:17:52.498Z,33.30
2019-02-19T23:20:27.504Z,38.50
2019-02-19T23:23:02.540Z,35.00
2019-02-19T23:25:37.617Z,36.10
2019-02-19T23:28:12.982Z,36.70
2019-02-19T23:30:47.341Z,29.25
2019-02-19T23:33:21.724Z,28.92
2019-02-19T23:36:06.634Z,36.93
2019-02-19T23:38:41.592Z,38.35
2019-02-19T23:41:16.023Z,37.90
2019-02-19T23:43:52.279Z,35.03
2019-02-19T23:46:27.517Z,37.25
2019-02-19T23:49:01.900Z,35.23
2019-02-19T23:51:37.267Z,36.13
2019-02-19T23:54:13.225Z,33.65
2019-02-19T23:56:48.849Z,34.65
2019-02-19T23:59:24.262Z,33.92
